createdAt,value
2019-02-24T00:01:19.015Z,-3.90
2019-02-24T00:03:47.463Z,-3.80
2019-02-24T00:06:15.904Z,-3.80
2019-02-24T00:08:44.335Z,-3.80
2019-02-24T00:11:12.781Z,-3.70
2019-02-24T00:13:41.231Z,-3.70
2019-02-24T00:16:09.651Z,-3.80
2019-02-24T00:18:38.110Z,-3.80
2019-02-24T00:21:06.551Z,-3.80
2019-02-24T00:23:34.951Z,-3.80
2019-02-24T00:26:04.696Z,-3.80
2019-02-24T00:28:33.301Z,-3.80
2019-02-24T00:31:02.107Z,-3.80
2019-02-24T00:33:30.614Z,-3.80
2019-02-24T00:36:00.795Z,-3.90
2019-02-24T00:38:29.231Z,-3.90
2019-02-24T00:40:57.649Z,-3.90
2019-02-24T00:43:26.112Z,-3.80
2019-02-24T00:45:54.506Z,-3.80
2019-02-24T00:48:22.940Z,-3.80
2019-02-24T00:50:52.220Z,-3.80
2019-02-24T00:53:20.627Z,-3.90
2019-02-24T00:55:49.084Z,-3.90
2019-02-24T00:58:17.499Z,-3.90
2019-02-24T01:00:45.900Z,-4.00
2019-02-24T01:03:14.431Z,-4.00
2019-02-24T01:05:42.827Z,-4.10
2019-02-24T01:08:11.261Z,-4.10
2019-02-24T01:10:39.700Z,-4.10
2019-02-24T01:13:08.157Z,-4.10
2019-02-24T01:15:36.592Z,-4.10
2019-02-24T01:18:05.014Z,-4.10
2019-02-24T01:20:33.439Z,-4.10
2019-02-24T01:23:01.898Z,-4.00
2019-02-24T01:25:30.295Z,-4.10
2019-02-24T01:27:58.742Z,-4.20
2019-02-24T01:30:27.142Z,-4.20
2019-02-24T01:32:55.559Z,-4.30
2019-02-24T01:35:23.999Z,-4.30
2019-02-24T01:37:52.399Z,-4.30
2019-02-24T01:40:20.819Z,-4.40
2019-02-24T01:42:49.248Z,-4.30
2019-02-24T01:45:17.709Z,-4.30
2019-02-24T01:47:46.134Z,-4.40
2019-02-24T01:50:14.564Z,-4.40
2019-02-24T01:52:43.004Z,-4.40
2019-02-24T01:55:11.427Z,-4.40
2019-02-24T01:57:39.827Z,-4.40
2019-02-24T02:00:10.090Z,-4.40
2019-02-24T02:02:38.598Z,-4.40
2019-02-24T02:05:07.867Z,-4.40
2019-02-24T02:07:36.311Z,-4.40
2019-02-24T02:10:05.888Z,-4.40
2019-02-24T02:12:34.308Z,-4.50
2019-02-24T02:15:02.711Z,-4.50
2019-02-24T02:17:31.168Z,-4.50
2019-02-24T02:19:59.591Z,-4.50
2019-02-24T02:22:28.040Z,-4.50
2019-02-24T02:24:56.483Z,-4.60
2019-02-24T02:27:24.934Z,-4.60
2019-02-24T02:29:53.360Z,-4.60
2019-02-24T02:32:21.810Z,-4.60
2019-02-24T02:34:50.240Z,-4.50
2019-02-24T02:37:18.687Z,-4.40
2019-02-24T02:39:47.139Z,-4.30
2019-02-24T02:42:15.554Z,-4.40
2019-02-24T02:44:43.992Z,-4.40
2019-02-24T02:47:12.415Z,-4.40
2019-02-24T02:49:40.843Z,-4.50
2019-02-24T02:52:09.271Z,-4.60
2019-02-24T02:54:37.695Z,-4.60
2019-02-24T02:57:06.139Z,-4.60
2019-02-24T02:59:34.547Z,-4.50
2019-02-24T03:02:03.026Z,-4.60
2019-02-24T03:04:31.443Z,-4.70
2019-02-24T03:07:10.532Z,-4.80
2019-02-24T03:09:38.980Z,-4.70
2019-02-24T03:12:07.407Z,-4.70
2019-02-24T03:14:35.868Z,-4.80
2019-02-24T03:17:04.298Z,-4.80
2019-02-24T03:19:32.696Z,-4.70
2019-02-24T03:22:02.720Z,-4.70
2019-02-24T03:24:31.124Z,-4.80
2019-02-24T03:26:59.596Z,-4.80
2019-02-24T03:29:27.995Z,-4.80
2019-02-24T03:31:56.396Z,-4.80
2019-02-24T03:34:24.842Z,-4.80
2019-02-24T03:36:53.264Z,-4.80
2019-02-24T03:39:21.659Z,-4.80
2019-02-24T03:41:50.079Z,-4.80
2019-02-24T03:44:18.533Z,-4.80
2019-02-24T03:46:46.984Z,-4.80
2019-02-24T03:49:15.386Z,-4.80
2019-02-24T03:51:43.855Z,-4.80
2019-02-24T03:54:12.258Z,-4.80
2019-02-24T03:56:40.760Z,-4.80
2019-02-24T03:59:15.053Z,-4.80
2019-02-24T04:01:39.434Z,-4.80
2019-02-24T04:04:07.903Z,-4.90
2019-02-24T04:06:36.376Z,-4.80
2019-02-24T04:09:05.056Z,-4.90
2019-02-24T04:11:33.472Z,-5.00
2019-02-24T04:14:01.875Z,-5.00
2019-02-24T04:16:30.405Z,-5.10
2019-02-24T04:18:58.787Z,-5.10
2019-02-24T04:21:27.249Z,-5.10
2019-02-24T04:23:55.680Z,-5.00
2019-02-24T04:26:24.099Z,-5.00
2019-02-24T04:28:52.536Z,-4.90
2019-02-24T04:31:20.964Z,-4.90
2019-02-24T04:33:49.367Z,-4.90
2019-02-24T04:36:17.795Z,-4.90
2019-02-24T04:38:46.241Z,-4.90
2019-02-24T04:41:14.635Z,-5.00
2019-02-24T04:43:43.058Z,-5.00
2019-02-24T04:46:11.473Z,-4.90
2019-02-24T04:48:39.879Z,-4.70
2019-02-24T04:51:08.344Z,-4.70
2019-02-24T04:53:36.767Z,-4.60
2019-02-24T04:56:05.200Z,-4.60
2019-02-24T04:58:33.595Z,-4.70
2019-02-24T05:01:02.621Z,-4.70
2019-02-24T05:03:31.028Z,-4.70
2019-02-24T05:05:59.492Z,-4.70
2019-02-24T05:08:27.907Z,-4.70
2019-02-24T05:10:56.324Z,-4.60
2019-02-24T05:13:24.780Z,-4.60
2019-02-24T05:15:53.195Z,-4.60
2019-02-24T05:18:21.599Z,-4.70
2019-02-24T05:20:50.026Z,-4.70
2019-02-24T05:23:18.484Z,-4.70
2019-02-24T05:25:47.015Z,-4.80
2019-02-24T05:28:15.431Z,-4.80
2019-02-24T05:30:43.856Z,-4.90
2019-02-24T05:33:12.259Z,-5.00
2019-02-24T05:35:40.686Z,-4.90
2019-02-24T05:38:09.139Z,-4.90
2019-02-24T05:40:37.583Z,-4.90
2019-02-24T05:43:05.985Z,-5.00
2019-02-24T05:45:34.412Z,-5.00
2019-02-24T05:48:02.816Z,-5.10
2019-02-24T05:50:31.529Z,-5.10
2019-02-24T05:52:59.927Z,-5.10
2019-02-24T05:55:28.401Z,-5.10
2019-02-24T05:57:56.794Z,-5.00
2019-02-24T06:00:25.256Z,-5.00
2019-02-24T06:02:53.685Z,-5.00
2019-02-24T06:05:22.102Z,-5.20
2019-02-24T06:07:50.535Z,-5.40
2019-02-24T06:10:18.965Z,-5.50
2019-02-24T06:12:47.390Z,-5.40
2019-02-24T06:15:15.820Z,-5.30
2019-02-24T06:17:44.222Z,-5.40
2019-02-24T06:20:12.684Z,-5.30
2019-02-24T06:22:41.148Z,-5.30
2019-02-24T06:25:09.549Z,-5.20
2019-02-24T06:27:37.951Z,-5.10
2019-02-24T06:30:08.271Z,-5.00
2019-02-24T06:32:36.664Z,-4.80
2019-02-24T06:35:07.131Z,-4.80
2019-02-24T06:37:35.569Z,-4.70
2019-02-24T06:40:04.531Z,-4.50
2019-02-24T06:42:32.979Z,-4.30
2019-02-24T06:45:03.260Z,-4.20
2019-02-24T06:47:31.702Z,-4.10
2019-02-24T06:50:00.302Z,-4.00
2019-02-24T06:52:28.736Z,-3.90
2019-02-24T06:54:57.180Z,-3.80
2019-02-24T06:57:25.609Z,-3.60
2019-02-24T06:59:54.035Z,-3.20
2019-02-24T07:02:22.467Z,-2.20
2019-02-24T07:04:50.873Z,-1.70
2019-02-24T07:07:19.340Z,-1.30
2019-02-24T07:09:47.739Z,-0.30
2019-02-24T07:12:16.175Z,0.00
2019-02-24T07:14:44.573Z,0.50
2019-02-24T07:17:12.979Z,1.40
2019-02-24T07:19:41.423Z,2.90
2019-02-24T07:22:09.856Z,3.40
2019-02-24T07:24:38.254Z,2.90
2019-02-24T07:27:06.679Z,2.50
2019-02-24T07:29:35.123Z,1.80
2019-02-24T07:32:03.521Z,0.90
2019-02-24T07:34:31.975Z,0.20
2019-02-24T07:37:02.283Z,0.00
2019-02-24T07:39:30.736Z,0.00
2019-02-24T07:41:59.165Z,0.50
2019-02-24T07:44:27.602Z,0.70
2019-02-24T07:46:56.026Z,0.40
2019-02-24T07:49:24.466Z,-0.10
2019-02-24T07:51:52.907Z,-0.40
2019-02-24T07:54:21.332Z,-0.60
2019-02-24T07:56:49.763Z,-0.80
2019-02-24T07:59:18.241Z,-0.80
2019-02-24T08:01:46.710Z,-0.90
2019-02-24T08:04:15.131Z,-0.80
2019-02-24T08:06:43.583Z,-0.70
2019-02-24T08:09:12.021Z,-0.60
2019-02-24T08:11:40.455Z,-0.40
2019-02-24T08:14:08.888Z,-0.30
2019-02-24T08:16:37.336Z,-0.20
2019-02-24T08:19:05.735Z,0.00
2019-02-24T08:21:34.154Z,0.30
2019-02-24T08:24:02.590Z,0.40
2019-02-24T08:26:31.024Z,0.60
2019-02-24T08:28:59.455Z,0.70
2019-02-24T08:31:27.867Z,0.60
2019-02-24T08:33:56.325Z,0.60
2019-02-24T08:36:24.769Z,0.60
2019-02-24T08:38:53.171Z,0.60
2019-02-24T08:41:21.567Z,0.60
2019-02-24T08:43:49.992Z,0.70
2019-02-24T08:46:18.415Z,0.80
2019-02-24T08:48:46.811Z,0.80
2019-02-24T08:51:15.269Z,0.90
2019-02-24T08:53:43.689Z,1.10
2019-02-24T08:56:12.103Z,1.00
2019-02-24T08:58:40.567Z,1.00
2019-02-24T09:01:08.972Z,1.10
2019-02-24T09:03:37.432Z,1.10
2019-02-24T09:06:05.854Z,1.10
2019-02-24T09:08:34.275Z,1.00
2019-02-24T09:11:02.677Z,0.90
2019-02-24T09:13:32.100Z,0.90
2019-02-24T09:16:00.524Z,0.90
2019-02-24T09:18:28.939Z,1.10
2019-02-24T09:20:57.338Z,1.30
2019-02-24T09:23:25.868Z,1.50
2019-02-24T09:25:54.296Z,1.50
2019-02-24T09:28:22.715Z,1.60
2019-02-24T09:31:00.166Z,1.80
2019-02-24T09:33:21.291Z,2.00
2019-02-24T09:35:51.656Z,2.20
2019-02-24T09:38:19.915Z,2.30
2019-02-24T09:40:48.356Z,2.40
2019-02-24T09:43:16.762Z,2.50
2019-02-24T09:45:45.187Z,2.70
2019-02-24T09:48:13.587Z,2.90
2019-02-24T09:50:42.022Z,3.00
2019-02-24T09:53:10.463Z,3.20
2019-02-24T09:55:38.860Z,3.30
2019-02-24T09:58:07.341Z,3.40
2019-02-24T10:00:35.826Z,3.40
2019-02-24T10:03:04.318Z,3.60
2019-02-24T10:05:32.800Z,3.70
2019-02-24T10:08:02.036Z,3.90
2019-02-24T10:10:30.460Z,4.00
2019-02-24T10:12:58.855Z,4.20
2019-02-24T10:15:27.279Z,4.30
2019-02-24T10:17:55.679Z,4.50
2019-02-24T10:20:24.200Z,4.70
2019-02-24T10:22:52.653Z,4.70
2019-02-24T10:25:21.081Z,4.80
2019-02-24T10:27:49.509Z,4.70
2019-02-24T10:30:18.020Z,4.70
2019-02-24T10:32:46.439Z,4.80
2019-02-24T10:35:14.889Z,4.80
2019-02-24T10:37:43.318Z,4.80
2019-02-24T10:40:13.989Z,4.80
2019-02-24T10:42:42.446Z,4.90
2019-02-24T10:45:13.577Z,4.90
2019-02-24T10:47:41.975Z,4.80
2019-02-24T10:50:12.814Z,4.50
2019-02-24T10:52:41.347Z,4.30
2019-02-24T10:55:09.815Z,4.10
2019-02-24T10:57:38.215Z,4.00
2019-02-24T11:00:11.783Z,3.90
2019-02-24T11:02:40.219Z,3.80
2019-02-24T11:05:09.087Z,3.80
2019-02-24T11:07:37.506Z,3.70
2019-02-24T11:10:08.267Z,3.70
2019-02-24T11:12:36.722Z,3.70
2019-02-24T11:15:07.645Z,3.70
2019-02-24T11:17:36.090Z,3.80
2019-02-24T11:20:09.403Z,3.90
2019-02-24T11:22:37.863Z,4.00
2019-02-24T11:25:08.704Z,4.20
2019-02-24T11:27:37.165Z,4.40
2019-02-24T11:30:08.199Z,4.60
2019-02-24T11:32:36.655Z,4.80
2019-02-24T11:35:07.583Z,5.10
2019-02-24T11:37:36.036Z,5.50
2019-02-24T11:40:07.173Z,5.80
2019-02-24T11:42:35.616Z,5.90
2019-02-24T11:45:05.281Z,6.20
2019-02-24T11:47:33.706Z,6.50
2019-02-24T11:50:02.128Z,6.70
2019-02-24T11:52:30.524Z,6.70
2019-02-24T11:54:58.953Z,6.70
2019-02-24T11:57:27.404Z,6.90
2019-02-24T11:59:55.847Z,7.00
2019-02-24T12:02:24.238Z,7.10
2019-02-24T12:04:52.659Z,7.10
2019-02-24T12:07:21.111Z,7.00
2019-02-24T12:09:49.529Z,7.00
2019-02-24T12:12:17.969Z,7.00
2019-02-24T12:14:46.397Z,6.80
2019-02-24T12:17:14.849Z,6.60
2019-02-24T12:19:43.244Z,6.40
2019-02-24T12:22:11.664Z,6.20
2019-02-24T12:24:40.062Z,6.00
2019-02-24T12:27:08.513Z,5.90
2019-02-24T12:29:36.961Z,5.90
2019-02-24T12:32:06.136Z,5.80
2019-02-24T12:34:34.791Z,5.80
2019-02-24T12:37:03.205Z,5.90
2019-02-24T12:39:31.640Z,5.80
2019-02-24T12:42:01.928Z,5.90
2019-02-24T12:44:30.371Z,6.00
2019-02-24T12:47:00.474Z,6.20
2019-02-24T12:49:29.108Z,6.30
2019-02-24T12:51:57.547Z,6.30
2019-02-24T12:54:25.950Z,6.30
2019-02-24T12:56:54.375Z,6.30
2019-02-24T12:59:22.839Z,6.40
2019-02-24T13:01:51.283Z,6.50
2019-02-24T13:04:19.713Z,6.50
2019-02-24T13:06:48.150Z,6.60
2019-02-24T13:09:16.567Z,6.70
2019-02-24T13:11:44.991Z,6.80
2019-02-24T13:14:13.388Z,6.70
2019-02-24T13:16:42.507Z,6.70
2019-02-24T13:19:10.919Z,6.80
2019-02-24T13:21:39.317Z,6.80
2019-02-24T13:24:07.740Z,6.80
2019-02-24T13:26:36.154Z,6.90
2019-02-24T13:29:04.579Z,7.00
2019-02-24T13:31:33.008Z,7.10
2019-02-24T13:34:01.403Z,7.10
2019-02-24T13:36:29.835Z,7.10
2019-02-24T13:38:58.404Z,7.00
2019-02-24T13:41:26.944Z,7.00
2019-02-24T13:43:55.335Z,6.90
2019-02-24T13:46:23.780Z,6.80
2019-02-24T13:48:52.240Z,6.80
2019-02-24T13:51:20.674Z,6.80
2019-02-24T13:53:49.095Z,6.80
2019-02-24T13:56:17.529Z,6.80
2019-02-24T13:58:45.912Z,6.90
2019-02-24T14:01:14.359Z,6.90
2019-02-24T14:03:42.756Z,7.00
2019-02-24T14:06:11.198Z,7.00
2019-02-24T14:08:39.639Z,7.10
2019-02-24T14:11:08.424Z,7.40
2019-02-24T14:13:36.878Z,7.60
2019-02-24T14:16:05.352Z,7.80
2019-02-24T14:18:33.767Z,7.90
2019-02-24T14:21:02.171Z,8.00
2019-02-24T14:23:30.622Z,8.10
2019-02-24T14:25:59.020Z,8.10
2019-02-24T14:28:27.509Z,8.10
2019-02-24T14:30:55.931Z,8.10
2019-02-24T14:33:24.375Z,8.10
2019-02-24T14:35:52.895Z,8.10
2019-02-24T14:38:21.337Z,8.10
2019-02-24T14:40:49.735Z,8.10
2019-02-24T14:43:18.173Z,8.10
2019-02-24T14:45:49.615Z,8.10
2019-02-24T14:48:16.848Z,8.00
2019-02-24T14:50:45.249Z,7.90
2019-02-24T14:53:13.742Z,7.80
2019-02-24T14:55:42.196Z,7.90
2019-02-24T14:58:10.624Z,7.90
2019-02-24T15:00:39.087Z,7.90
2019-02-24T15:03:07.552Z,7.90
2019-02-24T15:05:36.011Z,7.90
2019-02-24T15:08:04.424Z,7.80
2019-02-24T15:10:32.843Z,7.80
2019-02-24T15:13:01.247Z,7.80
2019-02-24T15:15:33.339Z,7.70
2019-02-24T15:18:01.944Z,7.80
2019-02-24T15:20:30.472Z,7.80
2019-02-24T15:22:58.867Z,7.70
2019-02-24T15:25:27.339Z,7.70
2019-02-24T15:27:55.762Z,7.90
2019-02-24T15:30:26.823Z,8.10
2019-02-24T15:32:55.351Z,8.00
2019-02-24T15:35:23.799Z,7.90
2019-02-24T15:37:52.220Z,7.90
2019-02-24T15:40:20.651Z,8.00
2019-02-24T15:42:49.095Z,8.10
2019-02-24T15:45:17.681Z,8.20
2019-02-24T15:47:46.181Z,8.10
2019-02-24T15:50:14.675Z,8.10
2019-02-24T15:52:43.144Z,8.00
2019-02-24T15:55:16.539Z,7.90
2019-02-24T15:57:44.978Z,7.70
2019-02-24T16:00:16.499Z,7.50
2019-02-24T16:02:44.935Z,7.40
2019-02-24T16:05:13.433Z,7.30
2019-02-24T16:07:41.860Z,7.20
2019-02-24T16:10:21.443Z,7.20
2019-02-24T16:12:50.523Z,7.30
2019-02-24T16:15:20.959Z,7.30
2019-02-24T16:17:49.384Z,7.30
2019-02-24T16:20:20.616Z,7.30
2019-02-24T16:22:49.051Z,7.20
2019-02-24T16:25:17.478Z,7.10
2019-02-24T16:27:45.879Z,7.00
2019-02-24T16:30:15.635Z,6.90
2019-02-24T16:32:44.117Z,6.80
2019-02-24T16:35:14.229Z,6.70
2019-02-24T16:37:42.629Z,6.60
2019-02-24T16:40:19.388Z,6.50
2019-02-24T16:42:47.787Z,6.50
2019-02-24T16:45:16.743Z,6.10
2019-02-24T16:47:45.318Z,5.70
2019-02-24T16:50:16.402Z,5.50
2019-02-24T16:52:44.899Z,5.30
2019-02-24T16:55:15.815Z,5.10
2019-02-24T16:57:44.326Z,5.00
2019-02-24T17:00:27.446Z,4.80
2019-02-24T17:02:55.843Z,4.60
2019-02-24T17:05:24.408Z,4.30
2019-02-24T17:07:52.915Z,3.90
2019-02-24T17:10:23.680Z,3.60
2019-02-24T17:12:52.107Z,3.30
2019-02-24T17:15:20.523Z,3.10
2019-02-24T17:17:48.955Z,2.80
2019-02-24T17:20:30.708Z,2.60
2019-02-24T17:22:59.115Z,2.40
2019-02-24T17:25:27.611Z,2.20
2019-02-24T17:27:56.115Z,2.00
2019-02-24T17:30:24.601Z,1.80
2019-02-24T17:32:53.039Z,1.70
2019-02-24T17:35:21.469Z,1.70
2019-02-24T17:37:49.895Z,1.70
2019-02-24T17:40:22.059Z,1.70
2019-02-24T17:42:50.476Z,1.70
2019-02-24T17:45:18.971Z,1.80
2019-02-24T17:47:47.430Z,1.80
2019-02-24T17:50:16.698Z,1.70
2019-02-24T17:52:45.138Z,1.60
2019-02-24T17:55:14.309Z,1.60
2019-02-24T17:57:42.728Z,1.40
2019-02-24T18:00:27.926Z,1.20
2019-02-24T18:02:56.743Z,1.10
2019-02-24T18:05:25.165Z,0.80
2019-02-24T18:07:53.637Z,0.70
2019-02-24T18:10:22.104Z,0.80
2019-02-24T18:12:50.573Z,0.70
2019-02-24T18:15:19.035Z,0.70
2019-02-24T18:17:47.463Z,0.70
2019-02-24T18:20:17.851Z,0.60
2019-02-24T18:22:46.253Z,0.60
2019-02-24T18:25:14.748Z,0.60
2019-02-24T18:27:45.154Z,0.50
2019-02-24T18:30:28.276Z,0.50
2019-02-24T18:32:56.703Z,0.30
2019-02-24T18:35:25.117Z,0.20
2019-02-24T18:37:53.581Z,0.10
2019-02-24T18:40:22.065Z,0.20
2019-02-24T18:42:59.383Z,0.20
2019-02-24T18:45:20.642Z,0.20
2019-02-24T18:47:49.787Z,0.20
2019-02-24T18:50:19.370Z,0.20
2019-02-24T18:52:48.556Z,0.00
2019-02-24T18:55:17.105Z,-0.10
2019-02-24T18:57:45.532Z,0.00
2019-02-24T19:00:19.346Z,0.00
2019-02-24T19:02:47.795Z,0.00
2019-02-24T19:05:16.497Z,0.00
2019-02-24T19:07:45.056Z,0.00
2019-02-24T19:10:18.636Z,-0.10
2019-02-24T19:12:47.041Z,-0.20
2019-02-24T19:15:25.207Z,-0.20
2019-02-24T19:17:53.622Z,-0.30
2019-02-24T19:20:23.068Z,-0.20
2019-02-24T19:22:51.571Z,-0.20
2019-02-24T19:25:20.047Z,-0.20
2019-02-24T19:27:48.573Z,-0.20
2019-02-24T19:30:18.223Z,-0.30
2019-02-24T19:32:46.662Z,-0.50
2019-02-24T19:35:16.144Z,-0.60
2019-02-24T19:37:44.714Z,-0.80
2019-02-24T19:40:15.839Z,-0.80
2019-02-24T19:42:44.548Z,-0.80
2019-02-24T19:45:15.432Z,-0.80
2019-02-24T19:47:43.958Z,-0.80
2019-02-24T19:50:18.810Z,-0.80
2019-02-24T19:52:47.234Z,-0.80
2019-02-24T19:55:16.725Z,-0.70
2019-02-24T19:57:45.233Z,-0.80
2019-02-24T20:00:27.192Z,-0.80
2019-02-24T20:02:55.613Z,-1.00
2019-02-24T20:05:24.150Z,-1.00
2019-02-24T20:07:52.699Z,-1.00
2019-02-24T20:10:26.181Z,-1.00
2019-02-24T20:12:54.648Z,-1.00
2019-02-24T20:15:23.053Z,-0.90
2019-02-24T20:17:51.478Z,-0.90
2019-02-24T20:20:19.968Z,-1.00
2019-02-24T20:22:48.395Z,-1.00
2019-02-24T20:25:23.611Z,-1.00
2019-02-24T20:27:52.007Z,-1.00
2019-02-24T20:30:28.146Z,-1.00
2019-02-24T20:32:56.569Z,-1.00
2019-02-24T20:35:25.002Z,-0.90
2019-02-24T20:37:53.423Z,-0.90
2019-02-24T20:40:21.928Z,-1.00
2019-02-24T20:42:50.335Z,-1.00
2019-02-24T20:45:20.411Z,-1.10
2019-02-24T20:47:49.007Z,-1.10
2019-02-24T20:50:29.257Z,-1.30
2019-02-24T20:52:57.706Z,-1.30
2019-02-24T20:55:26.205Z,-1.40
2019-02-24T20:57:54.707Z,-1.40
2019-02-24T21:00:44.061Z,-1.40
2019-02-24T21:03:12.459Z,-1.40
2019-02-24T21:05:40.907Z,-1.40
2019-02-24T21:08:09.372Z,-1.30
2019-02-24T21:10:37.843Z,-1.30
2019-02-24T21:13:06.251Z,-1.20
2019-02-24T21:15:34.670Z,-1.20
2019-02-24T21:18:03.133Z,-1.30
2019-02-24T21:20:34.919Z,-1.30
2019-02-24T21:23:04.447Z,-1.30
2019-02-24T21:25:32.863Z,-1.40
2019-02-24T21:28:01.316Z,-1.40
2019-02-24T21:30:31.787Z,-1.50
2019-02-24T21:33:01.850Z,-1.60
2019-02-24T21:35:30.243Z,-1.70
2019-02-24T21:37:58.706Z,-1.70
2019-02-24T21:40:27.105Z,-1.60
2019-02-24T21:42:55.531Z,-1.70
2019-02-24T21:45:25.419Z,-1.70
2019-02-24T21:47:53.848Z,-1.60
2019-02-24T21:50:22.259Z,-1.60
2019-02-24T21:52:50.667Z,-1.60
2019-02-24T21:55:19.097Z,-1.70
2019-02-24T21:57:47.609Z,-1.70
2019-02-24T22:00:26.703Z,-1.70
2019-02-24T22:02:55.105Z,-1.80
2019-02-24T22:05:23.651Z,-1.80
2019-02-24T22:07:52.083Z,-1.80
2019-02-24T22:10:20.512Z,-1.90
2019-02-24T22:12:48.938Z,-1.80
2019-02-24T22:15:19.967Z,-1.90
2019-02-24T22:17:48.360Z,-1.90
2019-02-24T22:20:17.069Z,-2.00
2019-02-24T22:22:45.664Z,-2.00
2019-02-24T22:25:15.041Z,-2.00
2019-02-24T22:27:43.541Z,-2.00
2019-02-24T22:30:17.973Z,-2.00
2019-02-24T22:32:46.493Z,-2.00
2019-02-24T22:35:14.920Z,-2.00
2019-02-24T22:37:43.345Z,-2.00
2019-02-24T22:40:13.014Z,-2.10
2019-02-24T22:42:41.528Z,-2.10
2019-02-24T22:45:17.752Z,-2.20
2019-02-24T22:47:46.471Z,-2.20
2019-02-24T22:50:15.527Z,-2.20
2019-02-24T22:52:44.422Z,-2.20
2019-02-24T22:55:15.383Z,-2.30
2019-02-24T22:57:43.874Z,-2.30
2019-02-24T23:00:52.572Z,-2.30
2019-02-24T23:03:29.513Z,-2.30
2019-02-24T23:05:58.011Z,-2.20
2019-02-24T23:08:26.571Z,-2.10
2019-02-24T23:10:54.972Z,-2.10
2019-02-24T23:13:23.428Z,-2.00
2019-02-24T23:15:51.847Z,-2.10
2019-02-24T23:18:20.348Z,-2.10
2019-02-24T23:20:48.840Z,-2.20
2019-02-24T23:23:17.292Z,-2.20
2019-02-24T23:25:45.695Z,-2.20
2019-02-24T23:28:14.120Z,-2.20
2019-02-24T23:30:42.565Z,-2.10
2019-02-24T23:33:11.331Z,-2.10
2019-02-24T23:35:39.783Z,-2.00
2019-02-24T23:38:08.295Z,-2.10
2019-02-24T23:40:36.696Z,-2.10
2019-02-24T23:43:05.292Z,-2.20
2019-02-24T23:45:33.737Z,-2.30
2019-02-24T23:48:02.196Z,-2.40
2019-02-24T23:50:30.630Z,-2.40
2019-02-24T23:53:02.192Z,-2.30
2019-02-24T23:55:30.596Z,-2.30
2019-02-24T23:58:00.608Z,-2.20
